Kihei, HI (96753)

10:38 PM HST on December 04, 2016 (GMT -1000)
Central Kihei | | Change Station
Active Advisory: Flash Flood Watch

Elev 26 ft 20.75 °N, 156.45 °W | Updated 6 minutes ago

Light Rain
Light Rain
69.5 °F
Feels Like 69.5 °F
N
0.0
Wind Variable Wind from East
Gusts 1.0 mph

Today
High -- | Low -- °F
--% Chance of Precip.
Yesterday
High -- | Low -- °F
Precip. -- in
Pressure 29.96 in
Visibility 8.0 miles
Clouds Few 5000 ft
Mostly Cloudy 8000 ft
Dew Point 68 °F
Humidity 94%
Rainfall 0.23 in
Snow Depth Not available.
6:48 AM 5:44 PM
Waxing Crescent, 29% visible
METAR PHOG 050754Z 12006KT 8SM -RA FEW050 BKN080 22/20 A2995 RMK AO2 SLP145 P0001 T02220200
Pressure 29.96 in
Visibility 8.0 miles
Clouds Few 5000 ft
Mostly Cloudy 8000 ft
Dew Point 68 °F
Humidity 94%
Rainfall 0.23 in
Snow Depth Not available.
6:48 AM 5:44 PM
Waxing Crescent, 29% visible
METAR PHOG 050754Z 12006KT 8SM -RA FEW050 BKN080 22/20 A2995 RMK AO2 SLP145 P0001 T02220200

10-Day Weather Forecast

Almanac

Astronomy

Dec. 04, 2016 Rise Set
Actual Time
Civil Twilight
Nautical Twilight
Astronomical Twilight
Moon
Length of Visible Light
Length of Day
Tomorrow will be .
, % of the Moon is Illuminated

Today's Extremes

State Highs State Lows

Community

WunderPhotos

Upload Photos

1,955,771 photos uploaded!

WunderBlog® & News

Nearby

Air Quality

  Air Quality AQ Index Pollutant
Not available.

Snow Depth

Station Depth Elevation

Earthquake Activity

City Distance Mag. Time & Date
Minimum magnitude displayed is 2.5.

Coastal Water Temperatures

Place Temperature

Stations

Nearby Weather Stations

Station Location Temp. Windchill Dew Point Humidity Wind Precip. Elev Updated Type
                   

Watches & Warnings

Flash Flood Watch
Issued: 3:16 PM HST Dec. 4, 2016 – National Weather Service

... Flash Flood Watch now in effect through late tonight...

The Flash Flood Watch is now in effect for

* Kahoolawe... Lanai... Maui... Molokai... Oahu and The Big Island.

* Through tonight

* the combination of deep tropical moisture and an unstable
airmass will allow for the potential for heavy showers and
thunderstorms from Oahu to The Big Island.

* Heavier downpours and thunderstorms could cause streams to
quickly overflow their banks... leading to flash flooding.

Precautionary/preparedness actions...

A Flash Flood Watch means that conditions may develop that lead
to flash flooding. Flash flooding is very dangerous.

You should monitor later forecasts and be prepared to take action
should flash flood warnings be issued. Campers and hikers should
consider postponing their Outing until the weather is better.
High streams... as well as streams overflowing their banks... could
make conditions very dangerous.



Foster